sensor_id;sensor_type;location;lat;lon;timestamp;P1;durP1;ratioP1;P2;durP2;ratioP2
69744;SDS011;57015;50.120;-5.168;2023-09-30T00:00:35;3.60;;;0.73;;
69744;SDS011;57015;50.120;-5.168;2023-09-30T00:03:01;5.60;;;0.60;;
69744;SDS011;57015;50.120;-5.168;2023-09-30T00:05:27;6.85;;;0.75;;
69744;SDS011;57015;50.120;-5.168;2023-09-30T00:07:52;4.50;;;0.70;;
69744;SDS011;57015;50.120;-5.168;2023-09-30T00:10:18;3.37;;;1.00;;
69744;SDS011;57015;50.120;-5.168;2023-09-30T00:12:43;5.90;;;1.20;;
69744;SDS011;57015;50.120;-5.168;2023-09-30T00:15:10;4.65;;;1.00;;
69744;SDS011;57015;50.120;-5.168;2023-09-30T00:17:36;3.97;;;0.77;;
69744;SDS011;57015;50.120;-5.168;2023-09-30T00:20:01;4.83;;;0.60;;
69744;SDS011;57015;50.120;-5.168;2023-09-30T00:22:29;4.32;;;0.90;;
69744;SDS011;57015;50.120;-5.168;2023-09-30T00:24:54;4.13;;;0.77;;
69744;SDS011;57015;50.120;-5.168;2023-09-30T00:27:20;5.13;;;0.70;;
69744;SDS011;57015;50.120;-5.168;2023-09-30T00:29:45;4.10;;;0.60;;
69744;SDS011;57015;50.120;-5.168;2023-09-30T00:32:10;9.60;;;0.70;;
69744;SDS011;57015;50.120;-5.168;2023-09-30T00:34:36;4.37;;;0.60;;
69744;SDS011;57015;50.120;-5.168;2023-09-30T00:37:01;3.70;;;0.60;;
69744;SDS011;57015;50.120;-5.168;2023-09-30T00:39:27;3.05;;;0.65;;
69744;SDS011;57015;50.120;-5.168;2023-09-30T00:41:56;7.22;;;1.17;;
69744;SDS011;57015;50.120;-5.168;2023-09-30T00:44:23;2.80;;;0.50;;
69744;SDS011;57015;50.120;-5.168;2023-09-30T00:46:49;4.40;;;0.60;;
69744;SDS011;57015;50.120;-5.168;2023-09-30T00:49:15;7.00;;;0.90;;
69744;SDS011;57015;50.120;-5.168;2023-09-30T00:51:42;3.97;;;0.60;;
69744;SDS011;57015;50.120;-5.168;2023-09-30T00:54:07;3.93;;;0.70;;
69744;SDS011;57015;50.120;-5.168;2023-09-30T00:56:33;2.08;;;0.55;;
69744;SDS011;57015;50.120;-5.168;2023-09-30T00:59:01;4.72;;;0.90;;
69744;SDS011;57015;50.120;-5.168;2023-09-30T01:01:26;2.70;;;0.80;;
69744;SDS011;57015;50.120;-5.168;2023-09-30T01:03:52;6.40;;;0.90;;
69744;SDS011;57015;50.120;-5.168;2023-09-30T01:06:17;5.00;;;0.55;;
69744;SDS011;57015;50.120;-5.168;2023-09-30T01:08:43;3.97;;;0.67;;
69744;SDS011;57015;50.120;-5.168;2023-09-30T01:11:08;5.00;;;0.60;;
69744;SDS011;57015;50.120;-5.168;2023-09-30T01:13:34;2.58;;;0.68;;
69744;SDS011;57015;50.120;-5.168;2023-09-30T01:16:04;8.10;;;1.80;;
69744;SDS011;57015;50.120;-5.168;2023-09-30T01:18:30;5.90;;;1.98;;
69744;SDS011;57015;50.120;-5.168;2023-09-30T01:20:56;5.47;;;0.70;;
69744;SDS011;57015;50.120;-5.168;2023-09-30T01:23:22;5.63;;;0.80;;
69744;SDS011;57015;50.120;-5.168;2023-09-30T01:25:48;5.10;;;0.40;;
69744;SDS011;57015;50.120;-5.168;2023-09-30T01:28:14;5.00;;;0.90;;
69744;SDS011;57015;50.120;-5.168;2023-09-30T01:30:41;4.05;;;0.50;;
69744;SDS011;57015;50.120;-5.168;2023-09-30T01:33:09;5.22;;;1.15;;
69744;SDS011;57015;50.120;-5.168;2023-09-30T01:35:34;4.63;;;0.63;;
69744;SDS011;57015;50.120;-5.168;2023-09-30T01:38:00;2.03;;;0.30;;
69744;SDS011;57015;50.120;-5.168;2023-09-30T01:40:25;4.47;;;0.60;;
69744;SDS011;57015;50.120;-5.168;2023-09-30T01:42:51;3.85;;;0.70;;
69744;SDS011;57015;50.120;-5.168;2023-09-30T01:45:16;2.65;;;0.35;;
69744;SDS011;57015;50.120;-5.168;2023-09-30T01:47:41;5.97;;;0.70;;
69744;SDS011;57015;50.120;-5.168;2023-09-30T01:50:07;2.53;;;0.50;;
69744;SDS011;57015;50.120;-5.168;2023-09-30T01:52:33;4.07;;;0.67;;
69744;SDS011;57015;50.120;-5.168;2023-09-30T01:54:58;4.75;;;0.47;;
69744;SDS011;57015;50.120;-5.168;2023-09-30T01:57:23;6.67;;;0.67;;
69744;SDS011;57015;50.120;-5.168;2023-09-30T01:59:49;4.67;;;0.47;;
69744;SDS011;57015;50.120;-5.168;2023-09-30T02:02:14;6.57;;;0.73;;
69744;SDS011;57015;50.120;-5.168;2023-09-30T02:04:40;4.53;;;0.85;;
69744;SDS011;57015;50.120;-5.168;2023-09-30T02:07:06;2.50;;;0.40;;
69744;SDS011;57015;50.120;-5.168;2023-09-30T02:09:31;3.77;;;0.47;;
69744;SDS011;57015;50.120;-5.168;2023-09-30T02:11:57;2.80;;;0.50;;
69744;SDS011;57015;50.120;-5.168;2023-09-30T02:14:22;2.83;;;0.23;;
69744;SDS011;57015;50.120;-5.168;2023-09-30T02:16:48;3.47;;;0.40;;
69744;SDS011;57015;50.120;-5.168;2023-09-30T02:19:13;3.13;;;0.57;;
69744;SDS011;57015;50.120;-5.168;2023-09-30T02:21:38;3.60;;;0.30;;
69744;SDS011;57015;50.120;-5.168;2023-09-30T02:24:04;4.80;;;0.53;;
69744;SDS011;57015;50.120;-5.168;2023-09-30T02:26:31;2.30;;;0.30;;
69744;SDS011;57015;50.120;-5.168;2023-09-30T02:28:57;1.60;;;0.30;;
69744;SDS011;57015;50.120;-5.168;2023-09-30T02:31:23;6.33;;;0.60;;
69744;SDS011;57015;50.120;-5.168;2023-09-30T02:33:49;4.18;;;0.43;;
69744;SDS011;57015;50.120;-5.168;2023-09-30T02:36:14;3.00;;;0.60;;
69744;SDS011;57015;50.120;-5.168;2023-09-30T02:38:40;11.63;;;0.90;;
69744;SDS011;57015;50.120;-5.168;2023-09-30T02:41:07;4.40;;;0.50;;
69744;SDS011;57015;50.120;-5.168;2023-09-30T02:43:32;2.83;;;0.38;;
69744;SDS011;57015;50.120;-5.168;2023-09-30T02:45:58;5.37;;;0.50;;
69744;SDS011;57015;50.120;-5.168;2023-09-30T02:48:23;4.20;;;0.65;;
69744;SDS011;57015;50.120;-5.168;2023-09-30T02:50:49;3.50;;;0.40;;
69744;SDS011;57015;50.120;-5.168;2023-09-30T02:53:14;7.43;;;0.60;;
69744;SDS011;57015;50.120;-5.168;2023-09-30T02:55:42;5.87;;;0.50;;
69744;SDS011;57015;50.120;-5.168;2023-09-30T02:58:08;4.63;;;0.77;;
69744;SDS011;57015;50.120;-5.168;2023-09-30T03:00:37;3.93;;;0.30;;
69744;SDS011;57015;50.120;-5.168;2023-09-30T03:03:03;3.63;;;0.40;;
69744;SDS011;57015;50.120;-5.168;2023-09-30T03:05:29;9.23;;;0.52;;
69744;SDS011;57015;50.120;-5.168;2023-09-30T03:07:55;3.72;;;0.60;;
69744;SDS011;57015;50.120;-5.168;2023-09-30T03:10:21;2.43;;;0.40;;
69744;SDS011;57015;50.120;-5.168;2023-09-30T03:12:48;5.00;;;0.50;;
69744;SDS011;57015;50.120;-5.168;2023-09-30T03:15:15;2.95;;;0.30;;
69744;SDS011;57015;50.120;-5.168;2023-09-30T03:17:41;3.30;;;0.40;;
69744;SDS011;57015;50.120;-5.168;2023-09-30T03:20:06;3.70;;;0.63;;
69744;SDS011;57015;50.120;-5.168;2023-09-30T03:22:36;2.38;;;0.30;;
69744;SDS011;57015;50.120;-5.168;2023-09-30T03:25:01;3.23;;;0.33;;
69744;SDS011;57015;50.120;-5.168;2023-09-30T03:27:27;4.87;;;1.87;;
69744;SDS011;57015;50.120;-5.168;2023-09-30T03:29:52;3.13;;;0.40;;
69744;SDS011;57015;50.120;-5.168;2023-09-30T03:32:18;4.18;;;1.67;;
69744;SDS011;57015;50.120;-5.168;2023-09-30T03:34:43;7.27;;;0.40;;
69744;SDS011;57015;50.120;-5.168;2023-09-30T03:37:11;2.70;;;0.40;;
69744;SDS011;57015;50.120;-5.168;2023-09-30T03:39:36;1.90;;;0.30;;
69744;SDS011;57015;50.120;-5.168;2023-09-30T03:42:02;1.57;;;0.30;;
69744;SDS011;57015;50.120;-5.168;2023-09-30T03:44:28;4.93;;;0.50;;
69744;SDS011;57015;50.120;-5.168;2023-09-30T03:46:54;2.30;;;0.30;;
69744;SDS011;57015;50.120;-5.168;2023-09-30T03:49:19;3.97;;;0.57;;
69744;SDS011;57015;50.120;-5.168;2023-09-30T03:51:45;3.17;;;0.40;;
69744;SDS011;57015;50.120;-5.168;2023-09-30T03:54:11;4.75;;;0.50;;
69744;SDS011;57015;50.120;-5.168;2023-09-30T03:56:36;3.67;;;0.33;;
69744;SDS011;57015;50.120;-5.168;2023-09-30T03:59:06;4.32;;;0.30;;
69744;SDS011;57015;50.120;-5.168;2023-09-30T04:01:33;4.53;;;0.30;;
69744;SDS011;57015;50.120;-5.168;2023-09-30T04:03:59;3.10;;;0.43;;
69744;SDS011;57015;50.120;-5.168;2023-09-30T04:06:25;1.70;;;0.20;;
69744;SDS011;57015;50.120;-5.168;2023-09-30T04:08:51;4.68;;;0.57;;
69744;SDS011;57015;50.120;-5.168;2023-09-30T04:11:16;4.80;;;0.83;;
69744;SDS011;57015;50.120;-5.168;2023-09-30T04:13:43;3.55;;;0.30;;
69744;SDS011;57015;50.120;-5.168;2023-09-30T04:16:09;3.03;;;0.40;;
69744;SDS011;57015;50.120;-5.168;2023-09-30T04:18:35;2.37;;;0.30;;
69744;SDS011;57015;50.120;-5.168;2023-09-30T04:21:00;3.35;;;0.28;;
69744;SDS011;57015;50.120;-5.168;2023-09-30T04:23:26;6.87;;;0.40;;
69744;SDS011;57015;50.120;-5.168;2023-09-30T04:25:52;7.55;;;0.50;;
69744;SDS011;57015;50.120;-5.168;2023-09-30T04:28:18;3.10;;;0.23;;
69744;SDS011;57015;50.120;-5.168;2023-09-30T04:30:46;1.20;;;0.35;;
69744;SDS011;57015;50.120;-5.168;2023-09-30T04:33:15;3.30;;;0.30;;
69744;SDS011;57015;50.120;-5.168;2023-09-30T04:35:42;3.28;;;0.30;;
69744;SDS011;57015;50.120;-5.168;2023-09-30T04:38:08;4.30;;;0.30;;
69744;SDS011;57015;50.120;-5.168;2023-09-30T04:40:34;3.78;;;0.32;;
69744;SDS011;57015;50.120;-5.168;2023-09-30T04:42:59;4.70;;;0.30;;
69744;SDS011;57015;50.120;-5.168;2023-09-30T04:45:25;3.80;;;0.30;;
69744;SDS011;57015;50.120;-5.168;2023-09-30T04:47:51;1.92;;;0.30;;
69744;SDS011;57015;50.120;-5.168;2023-09-30T04:50:17;5.40;;;0.82;;
69744;SDS011;57015;50.120;-5.168;2023-09-30T04:52:45;7.63;;;0.50;;
69744;SDS011;57015;50.120;-5.168;2023-09-30T04:55:10;3.90;;;0.23;;
69744;SDS011;57015;50.120;-5.168;2023-09-30T04:57:37;3.97;;;0.30;;
69744;SDS011;57015;50.120;-5.168;2023-09-30T05:00:03;4.17;;;0.40;;
69744;SDS011;57015;50.120;-5.168;2023-09-30T05:02:35;3.22;;;0.50;;
69744;SDS011;57015;50.120;-5.168;2023-09-30T05:05:01;3.07;;;0.50;;
69744;SDS011;57015;50.120;-5.168;2023-09-30T05:07:26;4.95;;;0.22;;
69744;SDS011;57015;50.120;-5.168;2023-09-30T05:09:53;4.67;;;0.50;;
69744;SDS011;57015;50.120;-5.168;2023-09-30T05:12:19;2.80;;;0.52;;
69744;SDS011;57015;50.120;-5.168;2023-09-30T05:14:45;3.63;;;0.77;;
69744;SDS011;57015;50.120;-5.168;2023-09-30T05:17:10;3.83;;;0.50;;
69744;SDS011;57015;50.120;-5.168;2023-09-30T05:19:37;2.20;;;0.30;;
69744;SDS011;57015;50.120;-5.168;2023-09-30T05:22:02;3.90;;;1.20;;
69744;SDS011;57015;50.120;-5.168;2023-09-30T05:24:28;4.07;;;0.60;;
69744;SDS011;57015;50.120;-5.168;2023-09-30T05:26:54;2.53;;;0.63;;
69744;SDS011;57015;50.120;-5.168;2023-09-30T05:29:19;8.70;;;0.80;;
69744;SDS011;57015;50.120;-5.168;2023-09-30T05:31:45;5.80;;;0.50;;
69744;SDS011;57015;50.120;-5.168;2023-09-30T05:34:11;2.35;;;0.40;;
69744;SDS011;57015;50.120;-5.168;2023-09-30T05:36:36;4.00;;;0.40;;
69744;SDS011;57015;50.120;-5.168;2023-09-30T05:39:02;4.63;;;0.53;;
69744;SDS011;57015;50.120;-5.168;2023-09-30T05:41:28;3.38;;;0.45;;
69744;SDS011;57015;50.120;-5.168;2023-09-30T05:43:54;4.10;;;0.70;;
69744;SDS011;57015;50.120;-5.168;2023-09-30T05:46:20;2.30;;;0.40;;
69744;SDS011;57015;50.120;-5.168;2023-09-30T05:48:46;3.63;;;0.55;;
69744;SDS011;57015;50.120;-5.168;2023-09-30T05:51:11;6.13;;;0.43;;
69744;SDS011;57015;50.120;-5.168;2023-09-30T05:53:40;4.80;;;0.40;;
69744;SDS011;57015;50.120;-5.168;2023-09-30T05:56:06;5.85;;;1.23;;
69744;SDS011;57015;50.120;-5.168;2023-09-30T05:58:32;3.43;;;0.93;;
69744;SDS011;57015;50.120;-5.168;2023-09-30T06:00:57;8.63;;;0.70;;
69744;SDS011;57015;50.120;-5.168;2023-09-30T06:03:22;11.90;;;1.42;;
69744;SDS011;57015;50.120;-5.168;2023-09-30T06:05:48;2.00;;;0.30;;
69744;SDS011;57015;50.120;-5.168;2023-09-30T06:08:14;5.70;;;0.63;;
69744;SDS011;57015;50.120;-5.168;2023-09-30T06:10:40;4.00;;;0.38;;
69744;SDS011;57015;50.120;-5.168;2023-09-30T06:13:08;7.47;;;0.37;;
69744;SDS011;57015;50.120;-5.168;2023-09-30T06:15:34;3.63;;;0.40;;
69744;SDS011;57015;50.120;-5.168;2023-09-30T06:18:02;5.60;;;0.40;;
69744;SDS011;57015;50.120;-5.168;2023-09-30T06:20:29;5.72;;;0.70;;
69744;SDS011;57015;50.120;-5.168;2023-09-30T06:22:55;6.25;;;1.25;;
69744;SDS011;57015;50.120;-5.168;2023-09-30T06:25:21;7.90;;;0.50;;
69744;SDS011;57015;50.120;-5.168;2023-09-30T06:27:48;7.80;;;0.63;;
69744;SDS011;57015;50.120;-5.168;2023-09-30T06:30:15;8.82;;;0.63;;
69744;SDS011;57015;50.120;-5.168;2023-09-30T06:32:45;7.03;;;0.57;;
69744;SDS011;57015;50.120;-5.168;2023-09-30T06:35:10;5.40;;;0.60;;
69744;SDS011;57015;50.120;-5.168;2023-09-30T06:37:36;2.92;;;0.45;;
69744;SDS011;57015;50.120;-5.168;2023-09-30T06:40:05;11.00;;;1.23;;
69744;SDS011;57015;50.120;-5.168;2023-09-30T06:42:33;6.28;;;0.50;;
69744;SDS011;57015;50.120;-5.168;2023-09-30T06:44:59;7.67;;;0.40;;
69744;SDS011;57015;50.120;-5.168;2023-09-30T06:47:24;6.57;;;0.45;;
69744;SDS011;57015;50.120;-5.168;2023-09-30T06:49:50;7.43;;;0.65;;
69744;SDS011;57015;50.120;-5.168;2023-09-30T06:52:15;7.30;;;0.60;;
69744;SDS011;57015;50.120;-5.168;2023-09-30T06:54:41;7.47;;;0.90;;
69744;SDS011;57015;50.120;-5.168;2023-09-30T06:57:06;10.38;;;1.27;;
69744;SDS011;57015;50.120;-5.168;2023-09-30T06:59:33;8.45;;;0.93;;
69744;SDS011;57015;50.120;-5.168;2023-09-30T07:01:58;3.77;;;0.87;;
69744;SDS011;57015;50.120;-5.168;2023-09-30T07:04:23;13.52;;;1.77;;
69744;SDS011;57015;50.120;-5.168;2023-09-30T07:06:50;6.45;;;0.70;;
69744;SDS011;57015;50.120;-5.168;2023-09-30T07:09:15;10.63;;;0.87;;
69744;SDS011;57015;50.120;-5.168;2023-09-30T07:11:41;10.18;;;1.20;;
69744;SDS011;57015;50.120;-5.168;2023-09-30T07:14:07;10.73;;;1.03;;
69744;SDS011;57015;50.120;-5.168;2023-09-30T07:16:32;11.20;;;1.42;;
69744;SDS011;57015;50.120;-5.168;2023-09-30T07:18:58;8.57;;;1.20;;
69744;SDS011;57015;50.120;-5.168;2023-09-30T07:21:23;11.40;;;1.43;;
69744;SDS011;57015;50.120;-5.168;2023-09-30T07:23:48;10.40;;;1.47;;
69744;SDS011;57015;50.120;-5.168;2023-09-30T07:26:14;16.17;;;2.43;;
69744;SDS011;57015;50.120;-5.168;2023-09-30T07:28:39;8.77;;;1.50;;
69744;SDS011;57015;50.120;-5.168;2023-09-30T07:31:05;12.63;;;1.10;;
69744;SDS011;57015;50.120;-5.168;2023-09-30T07:33:31;10.77;;;1.65;;
69744;SDS011;57015;50.120;-5.168;2023-09-30T07:35:57;12.43;;;2.03;;
69744;SDS011;57015;50.120;-5.168;2023-09-30T07:38:22;13.80;;;2.33;;
69744;SDS011;57015;50.120;-5.168;2023-09-30T07:40:48;9.30;;;1.30;;
69744;SDS011;57015;50.120;-5.168;2023-09-30T07:43:14;12.23;;;1.52;;
69744;SDS011;57015;50.120;-5.168;2023-09-30T07:45:39;13.10;;;2.25;;
69744;SDS011;57015;50.120;-5.168;2023-09-30T07:48:06;13.18;;;1.40;;
69744;SDS011;57015;50.120;-5.168;2023-09-30T07:50:34;13.07;;;1.50;;
69744;SDS011;57015;50.120;-5.168;2023-09-30T07:53:00;10.45;;;1.17;;
69744;SDS011;57015;50.120;-5.168;2023-09-30T07:55:25;11.15;;;1.40;;
69744;SDS011;57015;50.120;-5.168;2023-09-30T07:57:51;15.68;;;1.63;;
69744;SDS011;57015;50.120;-5.168;2023-09-30T08:00:16;11.63;;;1.57;;
69744;SDS011;57015;50.120;-5.168;2023-09-30T08:02:42;12.23;;;2.00;;
69744;SDS011;57015;50.120;-5.168;2023-09-30T08:05:09;17.07;;;1.67;;
69744;SDS011;57015;50.120;-5.168;2023-09-30T08:07:35;19.98;;;1.40;;
69744;SDS011;57015;50.120;-5.168;2023-09-30T08:10:00;9.60;;;1.50;;
69744;SDS011;57015;50.120;-5.168;2023-09-30T08:12:29;13.02;;;2.05;;
69744;SDS011;57015;50.120;-5.168;2023-09-30T08:14:55;12.23;;;1.33;;
69744;SDS011;57015;50.120;-5.168;2023-09-30T08:17:21;11.75;;;1.63;;
69744;SDS011;57015;50.120;-5.168;2023-09-30T08:19:46;8.33;;;1.20;;
69744;SDS011;57015;50.120;-5.168;2023-09-30T08:22:13;11.50;;;1.40;;
69744;SDS011;57015;50.120;-5.168;2023-09-30T08:24:38;12.80;;;1.50;;
69744;SDS011;57015;50.120;-5.168;2023-09-30T08:27:04;12.20;;;1.55;;
69744;SDS011;57015;50.120;-5.168;2023-09-30T08:29:32;14.32;;;2.00;;
69744;SDS011;57015;50.120;-5.168;2023-09-30T08:31:59;11.73;;;1.37;;
69744;SDS011;57015;50.120;-5.168;2023-09-30T08:34:24;12.05;;;1.55;;
69744;SDS011;57015;50.120;-5.168;2023-09-30T08:36:49;8.23;;;1.10;;
69744;SDS011;57015;50.120;-5.168;2023-09-30T08:39:15;10.90;;;1.47;;
69744;SDS011;57015;50.120;-5.168;2023-09-30T08:41:40;10.47;;;1.23;;
69744;SDS011;57015;50.120;-5.168;2023-09-30T08:44:09;14.30;;;1.35;;
69744;SDS011;57015;50.120;-5.168;2023-09-30T08:46:34;9.70;;;1.30;;
69744;SDS011;57015;50.120;-5.168;2023-09-30T08:49:00;14.33;;;2.40;;
69744;SDS011;57015;50.120;-5.168;2023-09-30T08:51:27;12.45;;;1.27;;
69744;SDS011;57015;50.120;-5.168;2023-09-30T08:53:54;13.10;;;1.52;;
69744;SDS011;57015;50.120;-5.168;2023-09-30T08:56:21;11.67;;;1.90;;
69744;SDS011;57015;50.120;-5.168;2023-09-30T08:58:49;13.90;;;2.63;;
69744;SDS011;57015;50.120;-5.168;2023-09-30T09:01:15;13.52;;;1.67;;
69744;SDS011;57015;50.120;-5.168;2023-09-30T09:03:41;7.57;;;1.05;;
69744;SDS011;57015;50.120;-5.168;2023-09-30T09:06:06;18.67;;;1.93;;
69744;SDS011;57015;50.120;-5.168;2023-09-30T09:08:32;9.77;;;1.27;;
69744;SDS011;57015;50.120;-5.168;2023-09-30T09:10:58;13.03;;;1.97;;
69744;SDS011;57015;50.120;-5.168;2023-09-30T09:13:25;12.80;;;2.13;;
69744;SDS011;57015;50.120;-5.168;2023-09-30T09:16:10;11.07;;;1.40;;
69744;SDS011;57015;50.120;-5.168;2023-09-30T09:18:35;17.63;;;1.83;;
69744;SDS011;57015;50.120;-5.168;2023-09-30T09:21:07;12.73;;;1.50;;
69744;SDS011;57015;50.120;-5.168;2023-09-30T09:23:53;15.05;;;1.40;;
69744;SDS011;57015;50.120;-5.168;2023-09-30T09:26:28;10.80;;;1.45;;
69744;SDS011;57015;50.120;-5.168;2023-09-30T09:28:59;9.90;;;2.23;;
69744;SDS011;57015;50.120;-5.168;2023-09-30T09:31:29;8.15;;;1.58;;
69744;SDS011;57015;50.120;-5.168;2023-09-30T09:33:56;10.52;;;1.92;;
69744;SDS011;57015;50.120;-5.168;2023-09-30T09:36:37;16.00;;;2.08;;
69744;SDS011;57015;50.120;-5.168;2023-09-30T09:39:11;12.57;;;1.60;;
69744;SDS011;57015;50.120;-5.168;2023-09-30T09:41:51;10.93;;;2.27;;
69744;SDS011;57015;50.120;-5.168;2023-09-30T09:44:19;13.15;;;1.92;;
69744;SDS011;57015;50.120;-5.168;2023-09-30T09:46:47;16.77;;;2.60;;
69744;SDS011;57015;50.120;-5.168;2023-09-30T09:49:13;12.90;;;1.88;;
69744;SDS011;57015;50.120;-5.168;2023-09-30T09:51:41;13.10;;;1.80;;
69744;SDS011;57015;50.120;-5.168;2023-09-30T09:54:09;14.73;;;2.40;;
69744;SDS011;57015;50.120;-5.168;2023-09-30T09:56:34;15.50;;;2.85;;
69744;SDS011;57015;50.120;-5.168;2023-09-30T09:59:01;13.40;;;2.10;;
69744;SDS011;57015;50.120;-5.168;2023-09-30T10:01:29;12.90;;;2.25;;
69744;SDS011;57015;50.120;-5.168;2023-09-30T10:03:56;10.25;;;1.45;;
69744;SDS011;57015;50.120;-5.168;2023-09-30T10:06:21;11.02;;;1.90;;
69744;SDS011;57015;50.120;-5.168;2023-09-30T10:08:48;15.87;;;2.07;;
69744;SDS011;57015;50.120;-5.168;2023-09-30T10:11:16;15.82;;;2.60;;
69744;SDS011;57015;50.120;-5.168;2023-09-30T10:13:56;15.63;;;3.03;;
69744;SDS011;57015;50.120;-5.168;2023-09-30T10:24:47;13.32;;;2.35;;
69744;SDS011;57015;50.120;-5.168;2023-09-30T10:27:35;11.32;;;2.72;;
69744;SDS011;57015;50.120;-5.168;2023-09-30T10:40:46;13.38;;;2.50;;
69744;SDS011;57015;50.120;-5.168;2023-09-30T10:48:54;14.93;;;2.53;;
69744;SDS011;57015;50.120;-5.168;2023-09-30T10:51:20;16.17;;;3.08;;
69744;SDS011;57015;50.120;-5.168;2023-09-30T10:56:16;12.90;;;2.53;;
69744;SDS011;57015;50.120;-5.168;2023-09-30T10:58:46;12.82;;;2.65;;
69744;SDS011;57015;50.120;-5.168;2023-09-30T11:01:22;12.80;;;2.67;;
69744;SDS011;57015;50.120;-5.168;2023-09-30T11:03:48;17.30;;;3.45;;
69744;SDS011;57015;50.120;-5.168;2023-09-30T11:06:17;14.60;;;2.55;;
69744;SDS011;57015;50.120;-5.168;2023-09-30T11:08:55;19.40;;;2.53;;
69744;SDS011;57015;50.120;-5.168;2023-09-30T11:11:40;15.52;;;2.72;;
69744;SDS011;57015;50.120;-5.168;2023-09-30T11:14:21;15.93;;;3.17;;
69744;SDS011;57015;50.120;-5.168;2023-09-30T11:16:50;15.75;;;2.95;;
69744;SDS011;57015;50.120;-5.168;2023-09-30T11:19:16;16.08;;;2.92;;
69744;SDS011;57015;50.120;-5.168;2023-09-30T11:21:42;21.08;;;3.00;;
69744;SDS011;57015;50.120;-5.168;2023-09-30T11:24:09;13.63;;;3.13;;
69744;SDS011;57015;50.120;-5.168;2023-09-30T11:26:34;18.23;;;2.97;;
69744;SDS011;57015;50.120;-5.168;2023-09-30T11:29:07;14.90;;;3.35;;
69744;SDS011;57015;50.120;-5.168;2023-09-30T11:31:54;17.83;;;3.03;;
69744;SDS011;57015;50.120;-5.168;2023-09-30T11:34:20;18.83;;;3.40;;
69744;SDS011;57015;50.120;-5.168;2023-09-30T11:36:57;13.85;;;2.70;;
69744;SDS011;57015;50.120;-5.168;2023-09-30T11:39:27;15.70;;;3.70;;
69744;SDS011;57015;50.120;-5.168;2023-09-30T11:41:53;14.68;;;2.90;;
69744;SDS011;57015;50.120;-5.168;2023-09-30T11:44:20;15.10;;;3.15;;
69744;SDS011;57015;50.120;-5.168;2023-09-30T11:46:56;20.83;;;3.22;;
69744;SDS011;57015;50.120;-5.168;2023-09-30T11:52:00;14.83;;;3.63;;
69744;SDS011;57015;50.120;-5.168;2023-09-30T11:54:29;16.95;;;2.83;;
69744;SDS011;57015;50.120;-5.168;2023-09-30T11:56:55;13.98;;;3.30;;
69744;SDS011;57015;50.120;-5.168;2023-09-30T11:59:21;21.17;;;3.40;;
69744;SDS011;57015;50.120;-5.168;2023-09-30T12:01:47;17.17;;;3.10;;
69744;SDS011;57015;50.120;-5.168;2023-09-30T12:04:16;13.60;;;2.90;;
69744;SDS011;57015;50.120;-5.168;2023-09-30T12:06:44;13.57;;;3.20;;
69744;SDS011;57015;50.120;-5.168;2023-09-30T12:09:10;17.53;;;3.30;;
69744;SDS011;57015;50.120;-5.168;2023-09-30T12:11:39;19.33;;;3.20;;
69744;SDS011;57015;50.120;-5.168;2023-09-30T12:14:04;16.25;;;2.85;;
69744;SDS011;57015;50.120;-5.168;2023-09-30T12:16:31;18.67;;;3.60;;
69744;SDS011;57015;50.120;-5.168;2023-09-30T12:18:56;12.57;;;2.83;;
69744;SDS011;57015;50.120;-5.168;2023-09-30T12:21:22;18.65;;;4.10;;
69744;SDS011;57015;50.120;-5.168;2023-09-30T12:23:48;17.27;;;3.37;;
69744;SDS011;57015;50.120;-5.168;2023-09-30T12:26:14;18.98;;;3.58;;
69744;SDS011;57015;50.120;-5.168;2023-09-30T12:28:40;15.97;;;3.93;;
69744;SDS011;57015;50.120;-5.168;2023-09-30T12:31:06;17.33;;;3.38;;
69744;SDS011;57015;50.120;-5.168;2023-09-30T12:33:31;18.20;;;3.47;;
69744;SDS011;57015;50.120;-5.168;2023-09-30T12:35:57;17.13;;;3.92;;
69744;SDS011;57015;50.120;-5.168;2023-09-30T12:38:23;16.92;;;3.00;;
69744;SDS011;57015;50.120;-5.168;2023-09-30T12:40:50;25.83;;;4.25;;
69744;SDS011;57015;50.120;-5.168;2023-09-30T12:43:19;18.48;;;3.85;;
69744;SDS011;57015;50.120;-5.168;2023-09-30T12:45:45;17.67;;;3.20;;
69744;SDS011;57015;50.120;-5.168;2023-09-30T12:48:11;21.10;;;4.00;;
69744;SDS011;57015;50.120;-5.168;2023-09-30T12:50:36;18.38;;;4.13;;
69744;SDS011;57015;50.120;-5.168;2023-09-30T12:53:02;19.63;;;3.28;;
69744;SDS011;57015;50.120;-5.168;2023-09-30T12:55:27;20.27;;;4.07;;
69744;SDS011;57015;50.120;-5.168;2023-09-30T12:57:53;19.10;;;4.07;;
69744;SDS011;57015;50.120;-5.168;2023-09-30T13:00:19;20.35;;;4.05;;
69744;SDS011;57015;50.120;-5.168;2023-09-30T13:02:44;16.33;;;3.27;;
69744;SDS011;57015;50.120;-5.168;2023-09-30T13:05:11;18.85;;;3.78;;
69744;SDS011;57015;50.120;-5.168;2023-09-30T13:07:37;17.30;;;4.23;;
69744;SDS011;57015;50.120;-5.168;2023-09-30T13:10:02;19.05;;;4.00;;
69744;SDS011;57015;50.120;-5.168;2023-09-30T13:12:30;21.63;;;4.22;;
69744;SDS011;57015;50.120;-5.168;2023-09-30T13:14:58;16.00;;;3.43;;
69744;SDS011;57015;50.120;-5.168;2023-09-30T13:17:23;21.83;;;5.05;;
69744;SDS011;57015;50.120;-5.168;2023-09-30T13:19:49;15.93;;;3.50;;
69744;SDS011;57015;50.120;-5.168;2023-09-30T13:22:16;18.88;;;4.10;;
69744;SDS011;57015;50.120;-5.168;2023-09-30T13:24:42;17.23;;;3.67;;
69744;SDS011;57015;50.120;-5.168;2023-09-30T13:27:07;19.80;;;4.20;;
69744;SDS011;57015;50.120;-5.168;2023-09-30T13:29:33;18.33;;;3.93;;
69744;SDS011;57015;50.120;-5.168;2023-09-30T13:31:58;18.47;;;3.80;;
69744;SDS011;57015;50.120;-5.168;2023-09-30T13:34:24;19.20;;;4.00;;
69744;SDS011;57015;50.120;-5.168;2023-09-30T13:36:49;15.47;;;3.50;;
69744;SDS011;57015;50.120;-5.168;2023-09-30T13:39:15;21.77;;;4.50;;
69744;SDS011;57015;50.120;-5.168;2023-09-30T13:41:42;21.65;;;4.72;;
69744;SDS011;57015;50.120;-5.168;2023-09-30T13:44:12;24.17;;;5.70;;
69744;SDS011;57015;50.120;-5.168;2023-09-30T13:46:38;20.95;;;4.15;;
69744;SDS011;57015;50.120;-5.168;2023-09-30T13:49:03;17.17;;;3.90;;
69744;SDS011;57015;50.120;-5.168;2023-09-30T13:51:29;16.53;;;3.53;;
69744;SDS011;57015;50.120;-5.168;2023-09-30T13:53:54;18.27;;;4.33;;
69744;SDS011;57015;50.120;-5.168;2023-09-30T13:56:19;19.45;;;4.72;;
69744;SDS011;57015;50.120;-5.168;2023-09-30T13:58:45;21.93;;;4.07;;
69744;SDS011;57015;50.120;-5.168;2023-09-30T14:01:12;21.30;;;4.30;;
69744;SDS011;57015;50.120;-5.168;2023-09-30T14:03:38;12.43;;;3.33;;
69744;SDS011;57015;50.120;-5.168;2023-09-30T14:06:09;17.92;;;4.00;;
69744;SDS011;57015;50.120;-5.168;2023-09-30T14:08:38;18.43;;;4.37;;
69744;SDS011;57015;50.120;-5.168;2023-09-30T14:11:03;20.98;;;3.75;;
69744;SDS011;57015;50.120;-5.168;2023-09-30T14:13:29;20.02;;;4.65;;
69744;SDS011;57015;50.120;-5.168;2023-09-30T14:15:55;21.53;;;3.97;;
69744;SDS011;57015;50.120;-5.168;2023-09-30T14:18:21;18.15;;;3.63;;
69744;SDS011;57015;50.120;-5.168;2023-09-30T14:20:47;16.88;;;4.15;;
69744;SDS011;57015;50.120;-5.168;2023-09-30T14:23:12;20.83;;;3.70;;
69744;SDS011;57015;50.120;-5.168;2023-09-30T14:25:38;17.58;;;4.45;;
69744;SDS011;57015;50.120;-5.168;2023-09-30T14:28:04;18.80;;;4.18;;
69744;SDS011;57015;50.120;-5.168;2023-09-30T14:30:30;19.02;;;3.97;;
69744;SDS011;57015;50.120;-5.168;2023-09-30T14:32:55;20.53;;;4.53;;
69744;SDS011;57015;50.120;-5.168;2023-09-30T14:35:21;20.43;;;3.53;;
69744;SDS011;57015;50.120;-5.168;2023-09-30T14:37:46;22.43;;;3.60;;
69744;SDS011;57015;50.120;-5.168;2023-09-30T14:40:11;18.57;;;3.97;;
69744;SDS011;57015;50.120;-5.168;2023-09-30T14:42:38;16.52;;;4.20;;
69744;SDS011;57015;50.120;-5.168;2023-09-30T14:45:03;19.23;;;4.63;;
69744;SDS011;57015;50.120;-5.168;2023-09-30T14:47:29;17.90;;;4.38;;
69744;SDS011;57015;50.120;-5.168;2023-09-30T14:49:54;15.67;;;4.17;;
69744;SDS011;57015;50.120;-5.168;2023-09-30T14:52:20;17.67;;;3.50;;
69744;SDS011;57015;50.120;-5.168;2023-09-30T14:54:46;18.97;;;3.70;;